Time;durP1;ratioP1;P1;durP2;ratioP2;P2;SDS_P1;SDS_P2;PMS_P1;PMS_P2;Temp;Humidity;BMP_temperature;BMP_pressure;BME280_temperature;BME280_humidity;BME280_pressure;Samples;Min_cycle;Max_cycle;Signal;HPM_P1;HPM_P2
2021/08/18 00:00:42;;;;;;;;;;;15.90;95.00;;;;;;4994607;28;19909;-77
2021/08/18 00:03:08;;;;;;;;;;;15.90;95.00;;;;;;4994656;28;19914;-76
2021/08/18 00:05:33;;;;;;;;;;;15.90;95.00;;;;;;4994663;28;20220;-76
2021/08/18 00:08:00;;;;;;;;;;;15.90;95.10;;;;;;4994384;28;19918;-76
2021/08/18 00:10:26;;;;;;;;;;;15.90;95.00;;;;;;4994475;28;19912;-76
2021/08/18 00:12:52;;;;;;;;;;;15.90;95.00;;;;;;4976739;28;19949;-77
2021/08/18 00:15:17;;;;;;;;;;;15.90;95.00;;;;;;4993950;28;19955;-76
2021/08/18 00:17:43;;;;;;;;;;;15.90;95.00;;;;;;4976680;28;19928;-75
2021/08/18 00:20:09;;;;;;;;;;;15.90;95.00;;;;;;4976499;28;19906;-76
2021/08/18 00:22:35;;;;;;;;;;;15.90;95.00;;;;;;4976357;28;19906;-76
2021/08/18 00:25:00;;;;;;;;;;;15.90;95.10;;;;;;4994039;28;19906;-77
2021/08/18 00:27:26;;;;;;;;;;;15.90;95.10;;;;;;4994395;28;19917;-76
2021/08/18 00:29:51;;;;;;;;;;;15.90;95.10;;;;;;4976894;28;20004;-76
2021/08/18 00:32:17;;;;;;;;;;;15.90;95.10;;;;;;4976887;28;20328;-75
2021/08/18 00:34:42;;;;;;;;;;;15.90;95.10;;;;;;4994037;28;19905;-76
2021/08/18 00:37:08;;;;;;;;;;;15.90;95.10;;;;;;4976629;28;19912;-75
2021/08/18 00:39:33;;;;;;;;;;;15.90;95.40;;;;;;4978277;28;19905;-76
2021/08/18 00:41:59;;;;;;;;;;;15.90;95.10;;;;;;4982653;28;19906;-75
2021/08/18 00:44:25;;;;;;;;;;;15.90;95.10;;;;;;4982281;28;19906;-76
2021/08/18 00:46:55;;;;;;;;;;;15.90;95.10;;;;;;4994465;28;19906;-76
2021/08/18 00:49:21;;;;;;;;;;;16.00;95.10;;;;;;4976053;28;19910;-77
2021/08/18 00:51:47;;;;;;;;;;;16.00;95.10;;;;;;4993797;28;19905;-76
2021/08/18 00:54:14;;;;;;;;;;;15.90;95.10;;;;;;4995622;28;19940;-76
2021/08/18 00:56:39;;;;;;;;;;;16.00;95.10;;;;;;4983096;28;19906;-77
2021/08/18 00:59:05;;;;;;;;;;;16.00;95.10;;;;;;4983054;28;19906;-77
2021/08/18 01:01:30;;;;;;;;;;;16.00;95.10;;;;;;4983303;28;19906;-77
2021/08/18 01:03:57;;;;;;;;;;;16.00;95.10;;;;;;4991884;28;19905;-76
2021/08/18 01:06:23;;;;;;;;;;;15.90;95.00;;;;;;4984779;28;19905;-76
2021/08/18 01:08:48;;;;;;;;;;;15.90;95.00;;;;;;5009930;28;19898;-76
2021/08/18 01:11:14;;;;;;;;;;;15.90;95.00;;;;;;4985913;28;19917;-76
2021/08/18 01:13:40;;;;;;;;;;;15.90;95.00;;;;;;5007769;28;19910;-74
2021/08/18 01:16:05;;;;;;;;;;;15.90;95.00;;;;;;5009544;28;19906;-75
2021/08/18 01:18:31;;;;;;;;;;;15.90;95.00;;;;;;4988642;28;20100;-76
2021/08/18 01:20:56;;;;;;;;;;;15.90;95.00;;;;;;4982999;28;19956;-75
2021/08/18 01:23:22;;;;;;;;;;;15.90;94.90;;;;;;4982265;28;19996;-76
2021/08/18 01:25:47;;;;;;;;;;;16.00;95.00;;;;;;4982537;28;19999;-76
2021/08/18 01:28:13;;;;;;;;;;;15.90;95.00;;;;;;4999818;28;20462;-76
2021/08/18 01:30:39;;;;;;;;;;;15.90;95.00;;;;;;4999875;28;20047;-76
2021/08/18 01:33:06;;;;;;;;;;;15.90;95.00;;;;;;4999510;28;20362;-77
2021/08/18 01:35:33;;;;;;;;;;;15.90;95.00;;;;;;4982365;28;19906;-77
2021/08/18 01:38:00;;;;;;;;;;;15.90;95.00;;;;;;4999689;28;20370;-77
2021/08/18 01:40:25;;;;;;;;;;;15.90;95.00;;;;;;4982119;28;19912;-77
2021/08/18 01:42:51;;;;;;;;;;;15.90;95.00;;;;;;4999602;28;19905;-76
2021/08/18 01:45:28;;;;;;;;;;;15.90;95.10;;;;;;4982071;28;20361;-75
2021/08/18 01:47:53;;;;;;;;;;;15.90;95.10;;;;;;5000158;28;19909;-75
2021/08/18 01:50:20;;;;;;;;;;;15.90;95.00;;;;;;4982216;28;19937;-75
2021/08/18 01:52:48;;;;;;;;;;;15.90;95.10;;;;;;5000612;28;19913;-76
2021/08/18 01:55:14;;;;;;;;;;;15.90;95.10;;;;;;4982973;28;19943;-76
2021/08/18 01:57:40;;;;;;;;;;;15.90;95.10;;;;;;5000519;28;19909;-77
2021/08/18 02:00:06;;;;;;;;;;;15.90;95.20;;;;;;4982593;28;20350;-77
2021/08/18 02:02:32;;;;;;;;;;;15.90;95.10;;;;;;5000002;28;19912;-77
2021/08/18 02:04:57;;;;;;;;;;;15.90;95.10;;;;;;4999653;28;19964;-76
2021/08/18 02:07:23;;;;;;;;;;;15.90;95.10;;;;;;4995221;28;20218;-76
2021/08/18 02:09:49;;;;;;;;;;;15.90;95.10;;;;;;4979332;28;19948;-76
2021/08/18 02:12:14;;;;;;;;;;;15.90;95.10;;;;;;4996074;28;20004;-75
2021/08/18 02:14:40;;;;;;;;;;;15.90;95.10;;;;;;4978998;28;19965;-75
2021/08/18 02:17:06;;;;;;;;;;;15.90;95.00;;;;;;4996265;28;19905;-76
2021/08/18 02:19:32;;;;;;;;;;;15.90;95.00;;;;;;4978899;28;20364;-76
2021/08/18 02:21:57;;;;;;;;;;;15.90;95.00;;;;;;4996660;28;19992;-77
2021/08/18 02:24:23;;;;;;;;;;;15.90;95.00;;;;;;4996167;28;19909;-77
2021/08/18 02:26:48;;;;;;;;;;;15.90;95.00;;;;;;4978652;28;19906;-76
2021/08/18 02:29:14;;;;;;;;;;;15.90;95.00;;;;;;4978357;28;19965;-76
2021/08/18 02:31:39;;;;;;;;;;;15.90;95.00;;;;;;4978778;28;19909;-76
2021/08/18 02:34:08;;;;;;;;;;;15.90;94.90;;;;;;4978725;28;19905;-76
2021/08/18 02:36:34;;;;;;;;;;;15.90;95.00;;;;;;4978624;28;19945;-75
2021/08/18 02:38:59;;;;;;;;;;;15.90;95.00;;;;;;4978607;28;20353;-76
2021/08/18 02:41:25;;;;;;;;;;;15.90;94.90;;;;;;4995508;28;19914;-76
2021/08/18 02:43:50;;;;;;;;;;;15.80;94.90;;;;;;4996102;28;20270;-77
2021/08/18 02:46:16;;;;;;;;;;;15.80;94.80;;;;;;4996547;28;19906;-76
2021/08/18 02:48:41;;;;;;;;;;;15.80;94.80;;;;;;4978577;28;20008;-75
2021/08/18 02:51:07;;;;;;;;;;;15.80;94.80;;;;;;4995512;28;19910;-77
2021/08/18 02:53:32;;;;;;;;;;;15.80;94.80;;;;;;4978798;28;20342;-77
2021/08/18 02:55:57;;;;;;;;;;;15.90;94.80;;;;;;4979137;28;19918;-77
2021/08/18 02:58:23;;;;;;;;;;;15.80;94.80;;;;;;4979591;28;19910;-77
2021/08/18 03:00:48;;;;;;;;;;;15.80;94.70;;;;;;4985401;28;19912;-75
2021/08/18 03:03:14;;;;;;;;;;;15.80;94.70;;;;;;4968669;28;20334;-74
2021/08/18 03:05:39;;;;;;;;;;;15.80;94.80;;;;;;4984313;28;19914;-77
2021/08/18 03:08:05;;;;;;;;;;;15.80;94.80;;;;;;4983003;28;19938;-76
2021/08/18 03:10:30;;;;;;;;;;;15.80;94.70;;;;;;4982222;28;20316;-77
2021/08/18 03:12:56;;;;;;;;;;;15.80;94.70;;;;;;4975626;28;20016;-75
2021/08/18 03:15:21;;;;;;;;;;;15.80;94.70;;;;;;4976996;28;19906;-76
2021/08/18 03:17:47;;;;;;;;;;;15.90;94.70;;;;;;4974601;28;19914;-77
2021/08/18 03:20:13;;;;;;;;;;;15.80;94.70;;;;;;4965429;28;19906;-77
2021/08/18 03:22:38;;;;;;;;;;;15.80;94.70;;;;;;4965870;28;19977;-75
2021/08/18 03:25:04;;;;;;;;;;;15.80;94.70;;;;;;4980389;28;19906;-75
2021/08/18 03:27:30;;;;;;;;;;;15.90;95.00;;;;;;4958500;28;19961;-76
2021/08/18 03:29:55;;;;;;;;;;;15.80;94.60;;;;;;4975598;28;19914;-77
2021/08/18 03:32:21;;;;;;;;;;;15.80;94.60;;;;;;4975466;28;19921;-76
2021/08/18 03:34:46;;;;;;;;;;;15.80;94.60;;;;;;4958178;28;19906;-76
2021/08/18 03:37:12;;;;;;;;;;;15.80;94.50;;;;;;4975425;28;20367;-76
2021/08/18 03:39:37;;;;;;;;;;;15.80;94.50;;;;;;4974308;28;20244;-77
2021/08/18 03:42:03;;;;;;;;;;;15.80;94.50;;;;;;4975823;28;20366;-76
2021/08/18 03:44:29;;;;;;;;;;;15.80;94.50;;;;;;4973858;28;19906;-75
2021/08/18 03:46:54;;;;;;;;;;;15.80;94.50;;;;;;4974990;28;19913;-76
2021/08/18 03:49:20;;;;;;;;;;;15.80;94.40;;;;;;4975208;28;19914;-77
2021/08/18 03:51:46;;;;;;;;;;;15.80;94.40;;;;;;4973967;28;19913;-74
2021/08/18 03:54:11;;;;;;;;;;;15.70;94.40;;;;;;4974031;28;20263;-77
2021/08/18 03:56:37;;;;;;;;;;;15.70;94.40;;;;;;4957808;28;19906;-76
2021/08/18 03:59:02;;;;;;;;;;;15.70;94.40;;;;;;4957598;28;19906;-76
2021/08/18 04:01:28;;;;;;;;;;;15.70;94.40;;;;;;4974496;28;20359;-76
2021/08/18 04:03:53;;;;;;;;;;;15.70;94.40;;;;;;4974767;28;19961;-77
2021/08/18 04:06:19;;;;;;;;;;;15.70;94.40;;;;;;4957326;28;19906;-77
2021/08/18 04:08:44;;;;;;;;;;;15.70;94.40;;;;;;4957316;28;20012;-77
2021/08/18 04:11:11;;;;;;;;;;;15.70;94.40;;;;;;4974987;28;19996;-77
2021/08/18 04:13:37;;;;;;;;;;;15.70;94.50;;;;;;4957660;28;19906;-77
2021/08/18 04:16:02;;;;;;;;;;;15.70;94.50;;;;;;4975092;28;19906;-77
2021/08/18 04:18:28;;;;;;;;;;;15.70;94.50;;;;;;4974635;28;20339;-78
2021/08/18 04:20:53;;;;;;;;;;;15.70;94.50;;;;;;4973776;28;20354;-76
2021/08/18 04:23:19;;;;;;;;;;;15.70;94.50;;;;;;4957478;28;19949;-76
2021/08/18 04:25:44;;;;;;;;;;;15.70;94.50;;;;;;4974899;28;20343;-77
2021/08/18 04:28:10;;;;;;;;;;;15.70;94.50;;;;;;4973006;28;20375;-77
2021/08/18 04:30:35;;;;;;;;;;;15.70;94.50;;;;;;4973648;28;19910;-77
2021/08/18 04:33:01;;;;;;;;;;;15.70;94.60;;;;;;4973539;28;19913;-77
2021/08/18 04:35:26;;;;;;;;;;;15.60;94.90;;;;;;4974283;28;19998;-77
2021/08/18 04:37:52;;;;;;;;;;;15.70;94.60;;;;;;4957659;28;20370;-76
2021/08/18 04:40:20;;;;;;;;;;;15.70;94.60;;;;;;4974776;28;19944;-76
2021/08/18 04:42:46;;;;;;;;;;;15.60;94.70;;;;;;4975708;28;19906;-77
2021/08/18 04:45:12;;;;;;;;;;;15.70;94.70;;;;;;4958447;28;19940;-77
2021/08/18 04:47:38;;;;;;;;;;;15.70;94.70;;;;;;4957686;28;19910;-77
2021/08/18 04:50:04;;;;;;;;;;;15.70;94.80;;;;;;4977534;28;19917;-78
2021/08/18 04:52:30;;;;;;;;;;;15.70;94.80;;;;;;4981847;28;19956;-76
2021/08/18 04:54:56;;;;;;;;;;;15.70;94.80;;;;;;4983846;28;19906;-77
2021/08/18 04:57:21;;;;;;;;;;;15.70;94.80;;;;;;4975470;28;20000;-75
2021/08/18 04:59:46;;;;;;;;;;;15.70;94.80;;;;;;4976402;28;20355;-77
2021/08/18 05:02:12;;;;;;;;;;;15.80;94.80;;;;;;4973869;28;19992;-77
2021/08/18 05:04:38;;;;;;;;;;;15.70;94.80;;;;;;4960497;28;19906;-77
2021/08/18 05:07:03;;;;;;;;;;;15.80;94.90;;;;;;4976298;28;20266;-77
2021/08/18 05:09:29;;;;;;;;;;;15.80;94.80;;;;;;4981761;28;19945;-77
2021/08/18 05:11:55;;;;;;;;;;;15.80;94.80;;;;;;4975426;28;19914;-77
2021/08/18 05:14:22;;;;;;;;;;;15.90;94.80;;;;;;4973558;28;20001;-77
2021/08/18 05:16:48;;;;;;;;;;;15.90;94.80;;;;;;4960040;28;20318;-77
2021/08/18 05:19:13;;;;;;;;;;;16.00;94.90;;;;;;4971728;28;19949;-76
2021/08/18 05:21:39;;;;;;;;;;;16.00;94.80;;;;;;4971506;28;19996;-77
2021/08/18 05:24:04;;;;;;;;;;;16.10;94.70;;;;;;4957137;28;19950;-77
2021/08/18 05:26:30;;;;;;;;;;;16.10;94.60;;;;;;4972896;28;19960;-77
2021/08/18 05:28:55;;;;;;;;;;;16.10;94.50;;;;;;4974154;28;19910;-77
2021/08/18 05:31:21;;;;;;;;;;;16.10;94.40;;;;;;4972791;28;20012;-77
2021/08/18 05:33:46;;;;;;;;;;;16.10;94.30;;;;;;4956577;28;19906;-78
2021/08/18 05:36:12;;;;;;;;;;;16.10;94.30;;;;;;4972926;28;19913;-78
2021/08/18 05:38:37;;;;;;;;;;;16.10;94.20;;;;;;4974028;28;20283;-77
2021/08/18 05:41:03;;;;;;;;;;;16.10;94.20;;;;;;4975760;28;19906;-77
2021/08/18 05:43:29;;;;;;;;;;;16.10;94.20;;;;;;4959827;28;19906;-77
2021/08/18 05:45:54;;;;;;;;;;;16.20;94.20;;;;;;4977913;28;19906;-77
2021/08/18 05:48:20;;;;;;;;;;;16.20;94.10;;;;;;4960389;28;19914;-76
2021/08/18 05:50:45;;;;;;;;;;;16.20;94.10;;;;;;4978754;28;19910;-76
2021/08/18 05:53:15;;;;;;;;;;;16.20;94.00;;;;;;4960106;28;19906;-78
2021/08/18 05:55:47;;;;;;;;;;;16.20;94.00;;;;;;4977502;28;19917;-76
2021/08/18 05:58:13;;;;;;;;;;;16.20;94.00;;;;;;4978157;28;19941;-77
2021/08/18 06:00:39;;;;;;;;;;;16.20;94.00;;;;;;4978321;28;19984;-77
2021/08/18 06:03:04;;;;;;;;;;;16.30;93.90;;;;;;4980562;28;19930;-77
2021/08/18 06:05:30;;;;;;;;;;;16.30;93.90;;;;;;4979291;28;19921;-77
2021/08/18 06:07:56;;;;;;;;;;;16.30;94.00;;;;;;4960285;28;20397;-76
2021/08/18 06:10:22;;;;;;;;;;;16.30;93.90;;;;;;4977380;28;19910;-76
2021/08/18 06:12:47;;;;;;;;;;;16.40;94.00;;;;;;4976897;28;19910;-78
2021/08/18 06:15:13;;;;;;;;;;;16.40;94.00;;;;;;4977125;28;19957;-77
2021/08/18 06:17:39;;;;;;;;;;;16.50;93.90;;;;;;4959462;28;20318;-77
2021/08/18 06:20:05;;;;;;;;;;;16.50;93.80;;;;;;4977656;28;19997;-77
2021/08/18 06:22:31;;;;;;;;;;;16.60;93.70;;;;;;4976806;28;19952;-77
2021/08/18 06:25:01;;;;;;;;;;;16.70;94.00;;;;;;4975788;28;19956;-76
2021/08/18 06:27:27;;;;;;;;;;;16.60;93.60;;;;;;4959315;28;19910;-77
2021/08/18 06:29:52;;;;;;;;;;;16.70;93.40;;;;;;4977102;28;19972;-77
2021/08/18 06:32:18;;;;;;;;;;;16.70;93.30;;;;;;4959232;28;19960;-78
2021/08/18 06:34:43;;;;;;;;;;;16.70;93.30;;;;;;4976541;28;19906;-77
2021/08/18 06:37:09;;;;;;;;;;;16.80;93.30;;;;;;4975593;28;20363;-78
2021/08/18 06:39:35;;;;;;;;;;;16.80;93.20;;;;;;4963562;28;19993;-77
2021/08/18 06:42:00;;;;;;;;;;;16.90;93.20;;;;;;4989434;28;19981;-78
2021/08/18 06:44:26;;;;;;;;;;;16.90;93.00;;;;;;4969320;28;20367;-79
2021/08/18 06:46:52;;;;;;;;;;;16.90;92.90;;;;;;4979282;28;20006;-78
2021/08/18 06:49:18;;;;;;;;;;;16.90;92.70;;;;;;4959588;28;19997;-77
2021/08/18 06:51:43;;;;;;;;;;;16.90;92.60;;;;;;4975804;28;20342;-79
2021/08/18 06:54:09;;;;;;;;;;;16.90;92.60;;;;;;4959048;28;19906;-77
2021/08/18 06:56:34;;;;;;;;;;;17.00;92.50;;;;;;4958841;28;19906;-78
2021/08/18 06:59:00;;;;;;;;;;;17.00;92.80;;;;;;4958939;28;20298;-77
2021/08/18 07:01:26;;;;;;;;;;;17.00;92.40;;;;;;4976356;28;19933;-77
2021/08/18 07:03:51;;;;;;;;;;;17.10;92.60;;;;;;4959538;28;19906;-77
2021/08/18 07:06:17;;;;;;;;;;;17.10;92.40;;;;;;4981877;28;19932;-77
2021/08/18 07:08:42;;;;;;;;;;;17.20;91.90;;;;;;4960417;28;20458;-78
2021/08/18 07:11:08;;;;;;;;;;;17.20;91.80;;;;;;4981070;28;19914;-77
2021/08/18 07:13:33;;;;;;;;;;;17.10;91.80;;;;;;4976955;28;19992;-78
2021/08/18 07:15:59;;;;;;;;;;;17.20;91.70;;;;;;4958806;28;19965;-78
2021/08/18 07:18:27;;;;;;;;;;;17.20;91.70;;;;;;4975345;28;19953;-77
2021/08/18 07:20:52;;;;;;;;;;;17.20;91.80;;;;;;4977303;28;20001;-78
2021/08/18 07:23:18;;;;;;;;;;;17.20;91.70;;;;;;4974440;28;19897;-77
2021/08/18 07:25:43;;;;;;;;;;;17.30;91.60;;;;;;4965224;28;20351;-78
2021/08/18 07:28:09;;;;;;;;;;;17.30;91.50;;;;;;4975308;28;19910;-78
2021/08/18 07:30:34;;;;;;;;;;;17.30;91.30;;;;;;4957620;28;19914;-77
2021/08/18 07:33:00;;;;;;;;;;;17.30;91.00;;;;;;4974066;28;19917;-78
2021/08/18 07:35:26;;;;;;;;;;;17.30;91.00;;;;;;4975170;28;19906;-77
2021/08/18 07:37:51;;;;;;;;;;;17.40;91.10;;;;;;4957916;28;20274;-78
2021/08/18 07:40:17;;;;;;;;;;;17.40;90.90;;;;;;4974095;28;20182;-78
2021/08/18 07:42:43;;;;;;;;;;;17.50;90.90;;;;;;4974795;28;19906;-78
2021/08/18 07:45:09;;;;;;;;;;;17.50;91.00;;;;;;4957614;28;19945;-77
2021/08/18 07:47:35;;;;;;;;;;;17.60;90.90;;;;;;4957175;28;19949;-78
2021/08/18 07:50:01;;;;;;;;;;;17.60;90.70;;;;;;4975125;28;19914;-79
2021/08/18 07:52:26;;;;;;;;;;;17.50;90.50;;;;;;4957532;28;19906;-77
2021/08/18 07:54:52;;;;;;;;;;;17.60;90.50;;;;;;4975362;28;19969;-79
2021/08/18 07:57:18;;;;;;;;;;;17.60;90.60;;;;;;4957786;28;20335;-79
2021/08/18 07:59:44;;;;;;;;;;;17.60;90.40;;;;;;4975008;28;19913;-78
2021/08/18 08:02:10;;;;;;;;;;;17.60;90.30;;;;;;4975204;28;19913;-79
2021/08/18 08:04:35;;;;;;;;;;;17.70;89.90;;;;;;4956590;28;19906;-78
2021/08/18 08:07:01;;;;;;;;;;;17.70;90.10;;;;;;4957514;28;19914;-78
2021/08/18 08:09:26;;;;;;;;;;;17.70;90.40;;;;;;4974738;28;20343;-78
2021/08/18 08:11:52;;;;;;;;;;;17.80;90.20;;;;;;4957810;28;20385;-76
2021/08/18 08:14:17;;;;;;;;;;;17.80;88.80;;;;;;4975406;28;19913;-79
2021/08/18 08:16:43;;;;;;;;;;;17.90;89.60;;;;;;4957048;28;19906;-79
2021/08/18 08:19:08;;;;;;;;;;;17.90;88.70;;;;;;4974732;28;19906;-78
2021/08/18 08:21:34;;;;;;;;;;;17.90;88.70;;;;;;4957458;28;19906;-79
2021/08/18 08:23:59;;;;;;;;;;;17.90;89.20;;;;;;4957781;28;20414;-79
2021/08/18 08:26:25;;;;;;;;;;;17.90;89.20;;;;;;4974802;28;19906;-77
2021/08/18 08:28:50;;;;;;;;;;;18.00;89.40;;;;;;4961531;28;19969;-79
2021/08/18 08:31:16;;;;;;;;;;;18.10;89.40;;;;;;4986697;28;19917;-78
2021/08/18 08:33:41;;;;;;;;;;;18.10;88.90;;;;;;4969126;28;19917;-78
2021/08/18 08:36:07;;;;;;;;;;;18.20;89.00;;;;;;4960540;28;19953;-79
2021/08/18 08:38:32;;;;;;;;;;;18.30;88.40;;;;;;4957975;28;19945;-78
2021/08/18 08:40:58;;;;;;;;;;;18.30;88.60;;;;;;4976237;28;19906;-80
2021/08/18 08:43:24;;;;;;;;;;;18.40;88.20;;;;;;4961259;28;19910;-79
2021/08/18 08:45:50;;;;;;;;;;;18.50;87.30;;;;;;4980684;28;19910;-77
2021/08/18 08:48:17;;;;;;;;;;;18.60;87.90;;;;;;4958431;28;19917;-80
2021/08/18 08:50:46;;;;;;;;;;;18.70;87.00;;;;;;4974489;28;19910;-78
2021/08/18 08:53:12;;;;;;;;;;;18.90;88.10;;;;;;4974756;28;19968;-79
2021/08/18 08:55:37;;;;;;;;;;;19.00;88.20;;;;;;4956882;28;20394;-78
2021/08/18 08:58:03;;;;;;;;;;;19.00;88.30;;;;;;4957166;28;19907;-79
2021/08/18 09:00:30;;;;;;;;;;;19.00;88.00;;;;;;4957155;28;19906;-79
2021/08/18 09:03:06;;;;;;;;;;;19.00;87.90;;;;;;4956669;28;19906;-79
2021/08/18 09:05:32;;;;;;;;;;;19.00;87.90;;;;;;4976358;28;19929;-78
2021/08/18 09:07:58;;;;;;;;;;;19.10;88.00;;;;;;4977967;28;20012;-77
2021/08/18 09:10:24;;;;;;;;;;;19.10;87.20;;;;;;4979360;28;20045;-78
2021/08/18 09:12:50;;;;;;;;;;;19.10;87.50;;;;;;4978467;28;19957;-79
2021/08/18 09:15:16;;;;;;;;;;;19.30;87.40;;;;;;4959233;28;19949;-77
2021/08/18 09:17:41;;;;;;;;;;;19.30;86.00;;;;;;4978183;28;19934;-79
2021/08/18 09:20:09;;;;;;;;;;;19.20;86.60;;;;;;4962039;28;19910;-78
2021/08/18 09:22:39;;;;;;;;;;;19.20;87.10;;;;;;4962025;28;19997;-78
2021/08/18 09:25:08;;;;;;;;;;;19.20;87.30;;;;;;4967522;28;19914;-79
2021/08/18 09:27:34;;;;;;;;;;;19.20;87.30;;;;;;4992633;28;19965;-78
2021/08/18 09:30:00;;;;;;;;;;;19.30;87.20;;;;;;4963266;28;19952;-78
2021/08/18 09:32:31;;;;;;;;;;;19.40;86.10;;;;;;4961099;28;20390;-78
2021/08/18 09:35:02;;;;;;;;;;;19.50;86.70;;;;;;4976259;28;19906;-79
2021/08/18 09:37:28;;;;;;;;;;;19.60;85.60;;;;;;4977527;28;19906;-78
2021/08/18 09:39:55;;;;;;;;;;;19.70;85.20;;;;;;4977486;28;20351;-77
2021/08/18 09:42:29;;;;;;;;;;;19.70;85.70;;;;;;4977670;28;19909;-78
2021/08/18 09:45:12;;;;;;;;;;;19.80;85.80;;;;;;4960171;28;20275;-77
2021/08/18 09:48:07;;;;;;;;;;;19.80;84.90;;;;;;4960715;28;19910;-77
2021/08/18 09:50:44;;;;;;;;;;;19.80;84.70;;;;;;4947314;28;19996;-78
2021/08/18 09:53:11;;;;;;;;;;;19.90;84.60;;;;;;4960062;28;19906;-78
2021/08/18 09:55:37;;;;;;;;;;;20.00;85.00;;;;;;4977183;28;20380;-77
2021/08/18 09:58:03;;;;;;;;;;;20.10;84.50;;;;;;4960254;28;19937;-78
2021/08/18 10:00:29;;;;;;;;;;;20.20;83.20;;;;;;4977256;28;19969;-78
2021/08/18 10:02:55;;;;;;;;;;;20.30;82.40;;;;;;4959851;28;19964;-77
2021/08/18 10:05:21;;;;;;;;;;;20.40;80.60;;;;;;4977017;28;20162;-77
2021/08/18 10:07:46;;;;;;;;;;;20.40;82.20;;;;;;4959309;28;20001;-77
2021/08/18 10:10:12;;;;;;;;;;;20.40;82.00;;;;;;4959813;28;19910;-77
2021/08/18 10:12:37;;;;;;;;;;;20.50;81.10;;;;;;4977078;28;19906;-78
2021/08/18 10:15:04;;;;;;;;;;;20.50;80.00;;;;;;4959907;28;19906;-78
2021/08/18 10:17:30;;;;;;;;;;;20.50;78.80;;;;;;4962149;28;19906;-77
2021/08/18 10:19:56;;;;;;;;;;;20.40;79.50;;;;;;4970663;28;19969;-77
2021/08/18 10:22:28;;;;;;;;;;;20.40;80.50;;;;;;4973402;28;19933;-77
2021/08/18 10:24:54;;;;;;;;;;;20.40;81.10;;;;;;4965395;28;19913;-78
2021/08/18 10:27:39;;;;;;;;;;;20.40;81.60;;;;;;4976253;28;19906;-77
2021/08/18 10:30:20;;;;;;;;;;;20.30;81.60;;;;;;4976827;28;20355;-78
2021/08/18 10:32:46;;;;;;;;;;;20.10;80.10;;;;;;4975237;28;19953;-78
2021/08/18 10:35:30;;;;;;;;;;;20.00;80.50;;;;;;4975551;28;19996;-77
2021/08/18 10:38:14;;;;;;;;;;;19.90;81.80;;;;;;4975365;28;19993;-77
2021/08/18 10:40:40;;;;;;;;;;;19.90;81.40;;;;;;4975359;28;19906;-76
2021/08/18 10:43:05;;;;;;;;;;;19.90;81.20;;;;;;4959314;28;20017;-78
2021/08/18 10:45:36;;;;;;;;;;;19.90;80.00;;;;;;4976657;28;19949;-77
2021/08/18 10:48:03;;;;;;;;;;;20.00;81.30;;;;;;4976347;28;19917;-78
2021/08/18 10:50:40;;;;;;;;;;;20.00;81.30;;;;;;4976499;28;19910;-78
2021/08/18 10:53:25;;;;;;;;;;;20.00;81.20;;;;;;4958942;28;19906;-77
2021/08/18 10:55:51;;;;;;;;;;;20.00;81.50;;;;;;4976079;28;19910;-76
2021/08/18 10:58:26;;;;;;;;;;;20.00;81.50;;;;;;4976140;28;19921;-77
2021/08/18 11:00:52;;;;;;;;;;;20.00;81.80;;;;;;4976229;28;19960;-78
2021/08/18 11:03:17;;;;;;;;;;;19.90;82.40;;;;;;4958911;28;19906;-77
2021/08/18 11:05:44;;;;;;;;;;;19.80;82.50;;;;;;4976446;28;19906;-77
2021/08/18 11:08:19;;;;;;;;;;;19.60;82.00;;;;;;4977535;28;19914;-79
2021/08/18 11:10:54;;;;;;;;;;;19.40;83.30;;;;;;4976254;28;20374;-79
2021/08/18 11:13:35;;;;;;;;;;;19.10;83.90;;;;;;4977816;28;19913;-79
2021/08/18 11:16:05;;;;;;;;;;;19.00;85.10;;;;;;4978004;28;19910;-77
2021/08/18 11:18:31;;;;;;;;;;;18.80;85.40;;;;;;4976215;28;20255;-79
2021/08/18 11:20:57;;;;;;;;;;;18.90;85.90;;;;;;4977825;28;20365;-78
2021/08/18 11:23:24;;;;;;;;;;;19.00;86.30;;;;;;4979557;28;19996;-78
2021/08/18 11:25:49;;;;;;;;;;;19.10;86.30;;;;;;4979473;28;19984;-79
2021/08/18 11:28:21;;;;;;;;;;;19.40;86.30;;;;;;4984070;28;19963;-77
2021/08/18 11:30:58;;;;;;;;;;;19.60;85.80;;;;;;4992792;28;19910;-78
2021/08/18 11:33:24;;;;;;;;;;;19.70;84.70;;;;;;4959123;28;19988;-77
2021/08/18 11:35:49;;;;;;;;;;;20.00;85.30;;;;;;4958357;28;19912;-78
2021/08/18 11:38:15;;;;;;;;;;;20.20;83.10;;;;;;4974126;28;19906;-78
2021/08/18 11:40:42;;;;;;;;;;;20.30;83.40;;;;;;4959432;28;20346;-77
2021/08/18 11:43:08;;;;;;;;;;;20.40;82.30;;;;;;4975421;28;19937;-77
2021/08/18 11:45:38;;;;;;;;;;;20.40;80.30;;;;;;4958015;28;19906;-77
2021/08/18 11:48:08;;;;;;;;;;;20.40;79.90;;;;;;4975173;28;19917;-77
2021/08/18 11:50:34;;;;;;;;;;;20.40;78.50;;;;;;4975463;28;20003;-75
2021/08/18 11:53:00;;;;;;;;;;;20.40;79.50;;;;;;4958820;28;20008;-78
2021/08/18 11:55:27;;;;;;;;;;;20.30;79.40;;;;;;4957726;28;19929;-78
2021/08/18 11:57:57;;;;;;;;;;;20.20;80.10;;;;;;4957544;28;19906;-78
2021/08/18 12:00:22;;;;;;;;;;;20.10;80.90;;;;;;4975521;28;19906;-78
2021/08/18 12:02:48;;;;;;;;;;;20.00;80.50;;;;;;4973790;28;19910;-78
2021/08/18 12:05:13;;;;;;;;;;;19.90;81.90;;;;;;4976494;28;19906;-77
2021/08/18 12:07:39;;;;;;;;;;;19.90;82.10;;;;;;4966393;28;19968;-77
2021/08/18 12:10:18;;;;;;;;;;;19.70;82.70;;;;;;4968675;28;19917;-77
2021/08/18 12:12:44;;;;;;;;;;;19.60;83.90;;;;;;4984869;28;19913;-78
2021/08/18 12:15:16;;;;;;;;;;;19.50;84.50;;;;;;4975151;28;19906;-78
2021/08/18 12:17:43;;;;;;;;;;;19.50;85.20;;;;;;4973333;28;19917;-78
2021/08/18 12:20:25;;;;;;;;;;;19.50;84.90;;;;;;4957320;28;19914;-78
2021/08/18 12:22:50;;;;;;;;;;;19.60;85.00;;;;;;4957020;28;19936;-78
2021/08/18 12:25:17;;;;;;;;;;;19.80;84.40;;;;;;4973576;28;19965;-78
2021/08/18 12:27:43;;;;;;;;;;;20.10;84.10;;;;;;4974570;28;19910;-82
2021/08/18 12:30:09;;;;;;;;;;;20.20;83.40;;;;;;4957437;28;19937;-79
2021/08/18 12:32:36;;;;;;;;;;;20.40;84.20;;;;;;4957131;28;20000;-77
2021/08/18 12:35:03;;;;;;;;;;;20.60;82.20;;;;;;4974386;28;19913;-79
2021/08/18 12:37:30;;;;;;;;;;;20.90;81.40;;;;;;4974409;28;20005;-78
2021/08/18 12:40:19;;;;;;;;;;;20.90;80.30;;;;;;4957289;28;19906;-77
2021/08/18 12:42:53;;;;;;;;;;;20.80;80.10;;;;;;4957023;28;20045;-78
2021/08/18 12:45:23;;;;;;;;;;;20.60;80.80;;;;;;4974902;28;19906;-78
2021/08/18 12:47:52;;;;;;;;;;;20.50;80.80;;;;;;4974176;28;19921;-78
2021/08/18 12:50:28;;;;;;;;;;;20.40;80.20;;;;;;4972482;28;19918;-78
2021/08/18 12:52:54;;;;;;;;;;;20.30;79.90;;;;;;4974385;28;19906;-78
2021/08/18 12:55:20;;;;;;;;;;;20.30;80.40;;;;;;4974634;28;20001;-78
2021/08/18 12:57:46;;;;;;;;;;;20.20;80.30;;;;;;4974279;28;20251;-78
2021/08/18 13:00:12;;;;;;;;;;;20.10;80.30;;;;;;4973295;28;19927;-78
2021/08/18 13:02:37;;;;;;;;;;;20.10;81.10;;;;;;4956790;28;19910;-78
2021/08/18 13:05:04;;;;;;;;;;;20.00;81.00;;;;;;4973866;28;19972;-78
2021/08/18 13:07:29;;;;;;;;;;;20.00;80.80;;;;;;4974520;28;19914;-78
2021/08/18 13:09:55;;;;;;;;;;;19.90;79.80;;;;;;4975295;28;20347;-77
2021/08/18 13:12:20;;;;;;;;;;;20.00;79.00;;;;;;4975408;28;19917;-77
2021/08/18 13:14:46;;;;;;;;;;;20.10;78.80;;;;;;4960488;28;19906;-76
2021/08/18 13:17:11;;;;;;;;;;;20.30;79.50;;;;;;4972879;28;19929;-77
2021/08/18 13:19:37;;;;;;;;;;;20.50;79.00;;;;;;4973834;28;19914;-77
2021/08/18 13:22:03;;;;;;;;;;;20.60;78.40;;;;;;4972883;28;19937;-77
2021/08/18 13:24:28;;;;;;;;;;;20.60;78.10;;;;;;4956780;28;20361;-76
2021/08/18 13:26:57;;;;;;;;;;;20.70;78.50;;;;;;4957069;28;19913;-78
2021/08/18 13:29:23;;;;;;;;;;;20.90;77.90;;;;;;4975671;28;20016;-77
2021/08/18 13:31:48;;;;;;;;;;;21.00;78.60;;;;;;4985144;28;20323;-77
2021/08/18 13:34:14;;;;;;;;;;;21.00;77.40;;;;;;4969145;28;19906;-76
2021/08/18 13:36:40;;;;;;;;;;;21.00;77.30;;;;;;4974290;28;20401;-78
2021/08/18 13:39:06;;;;;;;;;;;21.20;77.70;;;;;;4956595;28;19907;-78
2021/08/18 13:41:31;;;;;;;;;;;21.30;76.60;;;;;;4956267;28;19910;-76
2021/08/18 13:43:58;;;;;;;;;;;21.40;75.00;;;;;;4956111;28;19906;-76
2021/08/18 13:46:24;;;;;;;;;;;21.30;76.10;;;;;;4972442;28;19906;-77
2021/08/18 13:48:51;;;;;;;;;;;21.10;76.00;;;;;;4972107;28;20005;-77
2021/08/18 13:51:16;;;;;;;;;;;21.00;76.50;;;;;;4973308;28;19994;-77
2021/08/18 13:53:42;;;;;;;;;;;21.00;76.40;;;;;;4974128;28;20049;-77
2021/08/18 13:56:07;;;;;;;;;;;21.10;75.50;;;;;;4973576;28;19937;-76
2021/08/18 13:58:33;;;;;;;;;;;21.20;75.40;;;;;;4982188;28;20430;-77
2021/08/18 14:01:01;;;;;;;;;;;21.20;75.60;;;;;;4985834;28;19906;-77
2021/08/18 14:03:27;;;;;;;;;;;21.10;74.50;;;;;;4984437;28;19914;-77
2021/08/18 14:05:52;;;;;;;;;;;20.90;74.00;;;;;;4981058;28;19906;-77
2021/08/18 14:08:18;;;;;;;;;;;20.90;73.90;;;;;;4982598;28;19914;-78
2021/08/18 14:10:45;;;;;;;;;;;20.80;74.40;;;;;;4976622;28;20004;-76
2021/08/18 14:13:11;;;;;;;;;;;20.70;74.60;;;;;;4960129;28;19906;-76